Time;durP1;ratioP1;P1;durP2;ratioP2;P2;SDS_P1;SDS_P2;PMS_P1;PMS_P2;Temp;Humidity;BMP_temperature;BMP_pressure;BME280_temperature;BME280_humidity;BME280_pressure;Samples;Min_cycle;Max_cycle;Signal;HPM_P1;HPM_P2
2023/07/20 00:01:14;;;;;;;8.10;7.32;;;14.40;99.90;;;;;;5080735;28;20056;-62
2023/07/20 00:03:40;;;;;;;8.10;7.30;;;14.60;99.90;;;;;;5080343;28;20086;-62
2023/07/20 00:06:06;;;;;;;6.95;6.25;;;14.50;99.90;;;;;;5097588;28;20043;-61
2023/07/20 00:08:32;;;;;;;7.72;6.90;;;14.50;99.90;;;;;;5080402;28;20043;-61
2023/07/20 00:10:58;;;;;;;7.15;6.22;;;14.50;99.90;;;;;;5081073;28;20288;-61
2023/07/20 00:13:24;;;;;;;9.30;6.10;;;14.30;99.90;;;;;;5080614;28;20517;-61
2023/07/20 00:15:50;;;;;;;5.50;5.03;;;14.30;99.90;;;;;;5080733;28;20413;-62
2023/07/20 00:18:16;;;;;;;5.38;4.97;;;14.30;99.90;;;;;;5080172;28;20044;-61
2023/07/20 00:20:42;;;;;;;5.50;4.95;;;14.50;99.90;;;;;;5080335;28;20050;-62
2023/07/20 00:23:08;;;;;;;7.35;5.25;;;14.40;99.90;;;;;;5097274;28;20114;-62
2023/07/20 00:25:34;;;;;;;6.10;3.63;;;14.50;99.90;;;;;;5080663;28;20044;-62
2023/07/20 00:27:59;;;;;;;6.72;4.43;;;14.50;99.90;;;;;;5080738;28;20036;-62
2023/07/20 00:30:25;;;;;;;6.30;4.72;;;14.40;99.90;;;;;;5079865;28;20407;-62
2023/07/20 00:32:51;;;;;;;6.55;4.25;;;14.40;99.90;;;;;;5080165;28;20266;-62
2023/07/20 00:35:16;;;;;;;6.72;5.15;;;14.30;99.90;;;;;;5079532;28;20071;-61
2023/07/20 00:37:42;;;;;;;5.05;4.53;;;14.30;99.90;;;;;;5080211;28;20043;-61
2023/07/20 00:40:08;;;;;;;6.85;5.35;;;14.30;99.90;;;;;;5062752;28;20054;-61
2023/07/20 00:42:34;;;;;;;10.32;4.90;;;14.30;99.90;;;;;;5096659;28;20605;-62
2023/07/20 00:45:00;;;;;;;4.78;4.30;;;14.40;99.90;;;;;;5081697;28;20099;-61
2023/07/20 00:47:27;;;;;;;6.13;4.40;;;14.40;99.90;;;;;;5079744;28;20321;-61
2023/07/20 00:49:53;;;;;;;6.35;4.53;;;14.30;99.90;;;;;;5081295;28;20039;-61
2023/07/20 00:52:21;;;;;;;5.43;4.93;;;14.30;99.90;;;;;;5063162;28;20410;-60
2023/07/20 00:54:47;;;;;;;7.00;4.03;;;14.20;99.90;;;;;;5080394;28;20376;-61
2023/07/20 00:57:14;;;;;;;5.90;3.60;;;14.30;99.90;;;;;;5080130;28;20141;-61
2023/07/20 00:59:40;;;;;;;6.82;3.65;;;14.20;99.90;;;;;;5079818;28;20075;-62
2023/07/20 01:02:06;;;;;;;3.80;3.30;;;14.20;99.90;;;;;;5062554;28;20544;-61
2023/07/20 01:04:32;;;;;;;5.18;2.90;;;14.20;99.90;;;;;;5079066;28;20291;-61
2023/07/20 01:07:10;;;;;;;3.20;2.90;;;14.00;99.90;;;;;;5080920;28;20163;-61
2023/07/20 01:10:13;;;;;;;6.13;3.60;;;14.10;99.90;;;;;;5081318;28;20032;-61
2023/07/20 01:12:46;;;;;;;7.95;4.10;;;13.90;99.90;;;;;;5096214;28;20052;-61
2023/07/20 01:15:12;;;;;;;8.65;3.50;;;13.80;99.90;;;;;;5096636;28;20478;-61
2023/07/20 01:17:38;;;;;;;4.15;3.63;;;13.70;99.90;;;;;;5096112;28;20213;-61
2023/07/20 01:20:05;;;;;;;8.13;4.03;;;13.60;99.90;;;;;;5079361;28;20044;-60
2023/07/20 01:22:46;;;;;;;6.85;3.97;;;13.60;99.90;;;;;;5062521;28;20044;-61
2023/07/20 01:25:57;;;;;;;9.10;4.72;;;13.60;99.90;;;;;;5078878;28;20384;-61
2023/07/20 01:28:39;;;;;;;8.05;4.00;;;13.60;99.90;;;;;;5061886;28;20115;-62
2023/07/20 01:31:22;;;;;;;5.65;4.10;;;13.50;99.90;;;;;;5079147;28;20085;-61
2023/07/20 01:33:50;;;;;;;5.28;3.40;;;13.50;99.90;;;;;;5080153;28;20513;-62
2023/07/20 01:36:18;;;;;;;6.50;3.28;;;13.50;99.90;;;;;;5078624;28;20040;-61
2023/07/20 01:38:45;;;;;;;8.82;3.55;;;13.30;99.90;;;;;;5080492;28;20055;-60
2023/07/20 01:41:12;;;;;;;5.13;3.90;;;13.30;99.90;;;;;;5080135;28;20529;-62
2023/07/20 01:43:37;;;;;;;7.90;3.50;;;13.20;99.90;;;;;;5080160;28;20707;-62
2023/07/20 01:46:03;;;;;;;4.88;3.80;;;13.20;99.90;;;;;;5078454;28;20138;-61
2023/07/20 01:48:29;;;;;;;6.40;3.47;;;13.10;99.90;;;;;;5078941;28;20043;-61
2023/07/20 01:50:55;;;;;;;7.93;4.03;;;12.90;99.90;;;;;;5080188;28;20032;-61
2023/07/20 01:53:21;;;;;;;9.18;4.22;;;12.80;99.90;;;;;;5061787;28;20048;-61
2023/07/20 01:55:47;;;;;;;6.50;4.30;;;12.80;99.90;;;;;;5080258;28;20086;-61
2023/07/20 01:58:12;;;;;;;9.48;5.10;;;12.80;99.90;;;;;;5061465;28;20040;-61
2023/07/20 02:00:38;;;;;;;6.97;4.88;;;12.60;99.90;;;;;;5078500;28;20298;-62
2023/07/20 02:03:04;;;;;;;7.70;4.50;;;12.70;99.90;;;;;;5080261;28;20127;-62
2023/07/20 02:05:30;;;;;;;8.20;4.47;;;12.60;99.90;;;;;;5078563;28;20469;-62
2023/07/20 02:07:56;;;;;;;7.45;4.90;;;12.60;99.90;;;;;;5080355;28;20517;-61
2023/07/20 02:10:21;;;;;;;11.77;4.95;;;12.50;99.90;;;;;;5080265;28;20532;-60
2023/07/20 02:12:47;;;;;;;6.20;4.32;;;12.50;99.90;;;;;;5079939;28;20047;-61
2023/07/20 02:15:16;;;;;;;9.35;5.18;;;12.50;99.90;;;;;;5077985;28;20486;-60
2023/07/20 02:17:42;;;;;;;10.32;5.20;;;12.30;99.90;;;;;;5078454;28;20506;-60
2023/07/20 02:20:09;;;;;;;10.18;4.35;;;12.30;99.90;;;;;;5078326;28;20089;-60
2023/07/20 02:22:37;;;;;;;8.18;4.38;;;12.30;99.90;;;;;;5078352;28;20243;-60
2023/07/20 02:25:05;;;;;;;8.23;4.88;;;12.30;99.90;;;;;;5080176;28;20510;-61
2023/07/20 02:27:30;;;;;;;9.82;4.72;;;12.10;99.90;;;;;;5078360;28;20071;-61
2023/07/20 02:29:56;;;;;;;13.00;5.82;;;12.10;99.90;;;;;;5095067;28;20040;-61
2023/07/20 02:32:22;;;;;;;11.15;4.28;;;12.00;99.90;;;;;;5079829;28;20123;-63
2023/07/20 02:34:48;;;;;;;11.02;5.60;;;12.00;99.90;;;;;;5078182;28;20072;-61
2023/07/20 02:37:13;;;;;;;10.23;4.35;;;12.00;99.90;;;;;;5061437;28;20040;-61
2023/07/20 02:39:39;;;;;;;15.07;5.35;;;12.00;99.90;;;;;;5078554;28;20047;-61
2023/07/20 02:42:06;;;;;;;11.73;4.85;;;11.80;99.90;;;;;;5079509;28;20036;-61
2023/07/20 02:44:31;;;;;;;9.88;5.07;;;11.80;99.90;;;;;;5079206;28;20069;-61
2023/07/20 02:46:57;;;;;;;10.23;4.55;;;11.90;99.90;;;;;;5078164;28;20540;-61
2023/07/20 02:49:23;;;;;;;8.63;5.30;;;11.80;99.90;;;;;;5077533;28;20472;-61
2023/07/20 02:51:48;;;;;;;10.23;5.20;;;11.70;99.90;;;;;;5061661;28;20109;-61
2023/07/20 02:54:17;;;;;;;9.20;4.72;;;11.70;99.90;;;;;;5061922;28;20059;-61
2023/07/20 02:56:43;;;;;;;6.70;4.80;;;11.60;99.90;;;;;;5077662;28;20044;-61
2023/07/20 02:59:08;;;;;;;11.60;5.38;;;11.60;99.90;;;;;;5079008;28;20635;-60
2023/07/20 03:01:34;;;;;;;8.82;5.32;;;11.60;99.90;;;;;;5078213;28;20241;-61
2023/07/20 03:04:00;;;;;;;6.85;4.60;;;11.60;99.90;;;;;;5079687;28;20386;-61
2023/07/20 03:06:25;;;;;;;7.38;4.97;;;11.50;99.90;;;;;;5065030;28;20512;-61
2023/07/20 03:08:53;;;;;;;9.90;5.80;;;11.40;99.90;;;;;;5065152;28;20032;-61
2023/07/20 03:11:20;;;;;;;6.72;4.68;;;11.50;99.90;;;;;;5081521;28;20126;-61
2023/07/20 03:13:46;;;;;;;7.28;4.40;;;11.40;99.90;;;;;;5098615;28;20051;-61
2023/07/20 03:16:15;;;;;;;8.90;5.53;;;11.50;99.90;;;;;;5098438;28;20051;-61
2023/07/20 03:18:41;;;;;;;10.88;5.53;;;11.40;99.90;;;;;;5083096;28;20039;-59
2023/07/20 03:21:11;;;;;;;13.25;5.47;;;11.30;99.90;;;;;;5082901;28;20131;-60
2023/07/20 03:23:37;;;;;;;7.00;5.25;;;11.30;99.90;;;;;;5083100;28;20130;-60
2023/07/20 03:26:03;;;;;;;7.47;5.22;;;11.40;99.90;;;;;;5081168;28;20051;-59
2023/07/20 03:28:28;;;;;;;7.93;5.60;;;11.40;99.90;;;;;;5098313;28;20055;-60
2023/07/20 03:30:58;;;;;;;11.52;6.05;;;11.30;99.90;;;;;;5081391;28;20446;-61
2023/07/20 03:33:27;;;;;;;9.13;5.88;;;11.30;99.90;;;;;;5064547;28;20167;-61
2023/07/20 03:35:53;;;;;;;7.32;5.32;;;11.30;99.90;;;;;;5082668;28;20123;-61
2023/07/20 03:38:20;;;;;;;12.57;5.20;;;11.40;99.90;;;;;;5081181;28;20276;-61
2023/07/20 03:40:57;;;;;;;8.50;5.00;;;11.30;99.90;;;;;;5098140;28;20066;-61
2023/07/20 03:43:24;;;;;;;11.50;5.60;;;11.40;99.90;;;;;;5080468;28;20516;-61
2023/07/20 03:45:51;;;;;;;12.70;5.55;;;11.50;99.90;;;;;;5082563;28;20044;-61
2023/07/20 03:48:18;;;;;;;6.10;5.40;;;11.50;99.90;;;;;;5081167;28;20040;-61
2023/07/20 03:50:45;;;;;;;7.88;6.22;;;11.50;99.90;;;;;;5080746;28;20040;-61
2023/07/20 03:53:15;;;;;;;7.40;6.03;;;11.50;99.90;;;;;;5080183;28;20383;-61
2023/07/20 03:55:41;;;;;;;11.90;6.20;;;11.60;99.90;;;;;;5081260;28;20613;-61
2023/07/20 03:58:07;;;;;;;14.30;6.13;;;11.70;99.90;;;;;;5063946;28;20135;-61
2023/07/20 04:00:34;;;;;;;6.97;5.40;;;11.90;99.90;;;;;;5081410;28;20047;-61
2023/07/20 04:03:00;;;;;;;13.25;6.30;;;12.00;99.90;;;;;;5082309;28;20043;-61
2023/07/20 04:05:27;;;;;;;7.88;6.63;;;12.00;99.90;;;;;;5079973;28;20043;-61
2023/07/20 04:07:52;;;;;;;10.70;5.68;;;12.10;99.90;;;;;;5079914;28;20119;-61
2023/07/20 04:10:19;;;;;;;9.73;6.53;;;12.20;99.90;;;;;;5097073;28;20435;-61
2023/07/20 04:12:46;;;;;;;9.30;5.80;;;12.20;99.90;;;;;;5080074;28;20180;-61
2023/07/20 04:15:13;;;;;;;10.18;4.75;;;12.20;99.90;;;;;;5080174;28;20423;-61
2023/07/20 04:17:39;;;;;;;9.27;4.22;;;12.30;99.90;;;;;;5080238;28;20051;-60
2023/07/20 04:20:06;;;;;;;8.52;3.88;;;12.20;99.90;;;;;;5097416;28;20047;-61
2023/07/20 04:22:32;;;;;;;5.47;3.80;;;12.20;99.90;;;;;;5079802;28;20056;-60
2023/07/20 04:24:57;;;;;;;9.35;4.68;;;12.40;99.90;;;;;;5081513;28;20058;-61
2023/07/20 04:27:23;;;;;;;8.98;4.03;;;12.40;99.90;;;;;;5046354;28;20418;-61
2023/07/20 04:29:48;;;;;;;7.03;4.00;;;12.50;99.90;;;;;;5080855;28;20043;-61
2023/07/20 04:32:14;;;;;;;8.32;4.47;;;12.50;99.90;;;;;;5063679;28;20036;-60
2023/07/20 04:34:40;;;;;;;7.03;4.25;;;12.60;99.90;;;;;;5079988;28;20493;-61
2023/07/20 04:37:06;;;;;;;10.82;4.35;;;12.50;99.90;;;;;;5079912;28;20043;-61
2023/07/20 04:39:31;;;;;;;7.68;4.13;;;12.60;99.90;;;;;;5080234;28;20217;-61
2023/07/20 04:41:57;;;;;;;10.27;4.30;;;12.50;99.90;;;;;;5047228;28;20044;-62
2023/07/20 04:44:24;;;;;;;11.90;4.57;;;12.50;99.90;;;;;;5097122;28;20371;-60
2023/07/20 04:46:50;;;;;;;12.02;4.32;;;12.50;99.90;;;;;;5063750;28;20190;-61
2023/07/20 04:49:15;;;;;;;11.90;4.90;;;12.50;99.90;;;;;;5079835;28;20047;-61
2023/07/20 04:51:41;;;;;;;6.68;4.22;;;12.40;99.90;;;;;;5081335;28;20048;-61
2023/07/20 04:54:07;;;;;;;10.57;4.28;;;12.40;99.90;;;;;;5079860;28;20043;-61
2023/07/20 04:56:33;;;;;;;7.50;3.95;;;12.50;99.90;;;;;;5046429;28;20036;-61
2023/07/20 04:58:59;;;;;;;8.35;3.92;;;12.40;99.90;;;;;;5063175;28;20040;-60
2023/07/20 05:01:26;;;;;;;10.43;4.30;;;12.60;99.90;;;;;;5080028;28;20414;-61
2023/07/20 05:03:52;;;;;;;7.70;4.78;;;12.60;99.90;;;;;;5079507;28;20040;-60
2023/07/20 05:06:18;;;;;;;11.90;3.88;;;12.40;99.90;;;;;;5096390;28;20398;-60
2023/07/20 05:08:44;;;;;;;4.75;2.70;;;12.50;99.90;;;;;;5081007;28;20040;-61
2023/07/20 05:11:10;;;;;;;5.75;2.50;;;12.40;99.90;;;;;;5096257;28;20044;-61
2023/07/20 05:13:36;;;;;;;6.18;2.35;;;12.60;99.90;;;;;;5079611;28;20048;-61
2023/07/20 05:16:02;;;;;;;5.43;1.90;;;12.60;99.90;;;;;;5079960;28;20048;-61
2023/07/20 05:18:28;;;;;;;4.93;1.38;;;12.50;99.90;;;;;;5079411;28;20117;-61
2023/07/20 05:20:55;;;;;;;3.40;1.48;;;12.70;99.90;;;;;;5079476;28;20043;-61
2023/07/20 05:23:21;;;;;;;4.85;1.85;;;12.70;99.90;;;;;;5079273;28;20449;-61
2023/07/20 05:25:57;;;;;;;4.38;1.75;;;13.00;99.90;;;;;;5062020;28;20127;-61
2023/07/20 05:28:24;;;;;;;6.18;2.00;;;12.90;99.90;;;;;;5079931;28;20371;-61
2023/07/20 05:30:53;;;;;;;8.63;2.08;;;13.00;99.90;;;;;;5079273;28;20074;-60
2023/07/20 05:33:22;;;;;;;6.93;2.05;;;13.30;99.90;;;;;;5080391;28;20039;-60
2023/07/20 05:35:48;;;;;;;6.07;1.88;;;13.30;99.90;;;;;;5062723;28;20541;-60
2023/07/20 05:38:14;;;;;;;8.80;1.95;;;13.50;99.90;;;;;;5062500;28;20093;-61
2023/07/20 05:40:42;;;;;;;7.13;2.10;;;14.10;99.90;;;;;;5079099;28;20044;-61
2023/07/20 05:43:08;;;;;;;5.82;2.05;;;14.50;99.90;;;;;;5079003;28;20601;-60
2023/07/20 05:45:34;;;;;;;5.28;1.00;;;14.80;99.90;;;;;;5062084;28;20036;-60
2023/07/20 05:47:59;;;;;;;8.10;1.17;;;15.20;99.90;;;;;;5096313;28;20044;-60
2023/07/20 05:50:25;;;;;;;5.97;1.23;;;15.40;99.90;;;;;;5078961;28;20093;-61
2023/07/20 05:52:54;;;;;;;4.30;1.13;;;15.40;99.90;;;;;;5062586;28;20043;-61
2023/07/20 05:55:20;;;;;;;7.80;1.17;;;15.60;99.90;;;;;;5079453;28;20556;-60
2023/07/20 05:57:47;;;;;;;6.07;0.63;;;15.80;99.90;;;;;;5062562;28;20044;-60
2023/07/20 06:00:13;;;;;;;5.80;0.73;;;16.00;99.90;;;;;;5096309;28;20044;-60
2023/07/20 06:02:39;;;;;;;6.82;0.70;;;16.20;99.90;;;;;;5080252;28;20055;-61
2023/07/20 06:05:09;;;;;;;4.72;0.68;;;16.40;99.90;;;;;;5062247;28;20059;-60
2023/07/20 06:07:36;;;;;;;4.55;0.55;;;16.40;99.90;;;;;;5062671;28;20036;-61
2023/07/20 06:10:02;;;;;;;6.97;0.60;;;16.40;99.90;;;;;;5079396;28;20069;-61
2023/07/20 06:12:28;;;;;;;5.72;0.80;;;16.40;99.90;;;;;;5080826;28;20043;-61
2023/07/20 06:14:54;;;;;;;5.00;0.52;;;16.10;99.90;;;;;;5080293;28;20044;-61
2023/07/20 06:17:19;;;;;;;4.05;0.82;;;15.90;99.90;;;;;;5078804;28;20040;-61
2023/07/20 06:19:45;;;;;;;5.70;0.63;;;15.70;99.90;;;;;;5062142;28;20514;-60
2023/07/20 06:22:11;;;;;;;4.43;0.70;;;15.40;99.90;;;;;;5061619;28;20128;-61
2023/07/20 06:24:36;;;;;;;6.65;0.98;;;15.30;99.90;;;;;;5080368;28;20040;-61
2023/07/20 06:27:03;;;;;;;4.78;0.63;;;15.20;99.90;;;;;;5078889;28;20148;-61
2023/07/20 06:29:28;;;;;;;5.32;0.60;;;15.60;99.90;;;;;;5077958;28;20032;-60
2023/07/20 06:31:54;;;;;;;2.88;0.50;;;16.00;99.90;;;;;;5061790;28;20040;-60
2023/07/20 06:34:20;;;;;;;3.47;0.95;;;16.50;99.90;;;;;;5077981;28;20516;-61
2023/07/20 06:36:46;;;;;;;4.47;0.90;;;16.80;99.90;;;;;;5078343;28;20074;-61
2023/07/20 06:39:12;;;;;;;3.85;1.25;;;17.00;99.90;;;;;;5081438;28;20084;-61
2023/07/20 06:41:38;;;;;;;7.80;1.73;;;17.20;99.90;;;;;;5084282;28;20068;-61
2023/07/20 06:44:05;;;;;;;4.00;0.93;;;17.40;99.90;;;;;;5082012;28;20106;-61
2023/07/20 06:46:30;;;;;;;5.50;0.82;;;17.50;99.90;;;;;;5082464;28;20055;-61
2023/07/20 06:48:56;;;;;;;3.13;1.00;;;17.60;99.90;;;;;;5065179;28;20410;-61
2023/07/20 06:51:22;;;;;;;5.22;1.27;;;18.10;99.90;;;;;;5065095;28;20105;-62
2023/07/20 06:53:48;;;;;;;4.65;1.20;;;18.40;99.90;;;;;;5082757;28;20044;-62
2023/07/20 06:56:14;;;;;;;5.90;1.23;;;18.40;1.00;;;;;;5082450;28;20105;-61
2023/07/20 06:58:39;;;;;;;5.85;1.35;;;18.60;50.20;;;;;;5065201;28;20071;-62
2023/07/20 07:01:06;;;;;;;7.38;1.15;;;18.90;91.70;;;;;;5048364;28;20047;-62
2023/07/20 07:03:33;;;;;;;6.47;1.20;;;18.90;1.00;;;;;;5083368;28;20105;-61
2023/07/20 07:05:58;;;;;;;6.80;1.35;;;18.40;99.90;;;;;;5082464;28;20052;-61
2023/07/20 07:08:24;;;;;;;6.70;1.40;;;17.80;99.90;;;;;;5082728;28;20346;-61
2023/07/20 07:10:51;;;;;;;7.20;1.92;;;17.50;99.90;;;;;;5065428;28;20486;-60
2023/07/20 07:13:17;;;;;;;5.97;1.65;;;17.20;99.90;;;;;;5065224;28;20128;-60
2023/07/20 07:15:43;;;;;;;5.15;1.65;;;17.20;1.00;;;;;;5065344;28;20067;-61
2023/07/20 07:18:08;;;;;;;6.90;1.45;;;17.20;35.20;;;;;;5082166;28;20044;-62
2023/07/20 07:20:34;;;;;;;4.53;1.38;;;17.50;99.90;;;;;;5083355;28;20555;-61
2023/07/20 07:23:00;;;;;;;7.80;1.27;;;17.50;1.00;;;;;;5082167;28;20047;-61
2023/07/20 07:25:26;;;;;;;3.50;0.63;;;17.40;1.00;;;;;;5082145;28;20044;-62
2023/07/20 07:27:53;;;;;;;4.70;0.80;;;17.60;1.00;;;;;;5081828;28;20077;-61
2023/07/20 07:30:19;;;;;;;5.50;0.70;;;17.80;99.90;;;;;;5082999;28;20119;-62
2023/07/20 07:32:46;;;;;;;4.70;0.60;;;17.90;99.90;;;;;;5064711;28;20040;-62
2023/07/20 07:35:12;;;;;;;6.63;0.60;;;18.10;99.90;;;;;;5064353;28;20182;-62
2023/07/20 07:37:38;;;;;;;3.25;0.50;;;18.10;99.90;;;;;;5083303;28;20501;-62
2023/07/20 07:40:05;;;;;;;6.10;0.65;;;18.00;99.90;;;;;;5064935;28;20087;-62
2023/07/20 07:42:31;;;;;;;7.15;0.50;;;18.10;99.90;;;;;;5081555;28;20513;-62
2023/07/20 07:44:57;;;;;;;4.32;0.43;;;18.60;99.90;;;;;;5064023;28;20052;-62
2023/07/20 07:47:22;;;;;;;4.57;0.30;;;18.90;99.90;;;;;;5081129;28;20052;-61
2023/07/20 07:49:49;;;;;;;3.67;0.30;;;18.60;99.90;;;;;;5064086;28;20362;-62
2023/07/20 07:52:15;;;;;;;6.75;0.60;;;18.40;28.10;;;;;;5081636;28;20040;-62
2023/07/20 07:54:40;;;;;;;4.60;0.30;;;18.40;99.90;;;;;;5081734;28;20066;-61
2023/07/20 07:57:06;;;;;;;3.88;0.40;;;18.40;1.00;;;;;;5082210;28;20047;-61
2023/07/20 07:59:36;;;;;;;4.55;0.40;;;18.60;1.00;;;;;;5098342;28;20054;-61
2023/07/20 08:02:05;;;;;;;2.67;0.40;;;19.00;13.50;;;;;;5081203;28;20036;-61
2023/07/20 08:04:31;;;;;;;3.50;0.30;;;19.30;99.90;;;;;;5047616;28;20040;-61
2023/07/20 08:06:57;;;;;;;4.45;0.40;;;19.40;99.90;;;;;;5083138;28;20034;-61
2023/07/20 08:09:23;;;;;;;2.90;0.40;;;19.00;99.90;;;;;;5081074;28;20044;-61
2023/07/20 08:11:49;;;;;;;3.53;0.47;;;18.90;99.90;;;;;;5098044;28;20486;-62
2023/07/20 08:14:15;;;;;;;2.20;0.20;;;19.10;99.90;;;;;;5064426;28;20101;-61
2023/07/20 08:16:41;;;;;;;4.00;0.30;;;18.90;99.90;;;;;;5081191;28;20482;-61
2023/07/20 08:19:07;;;;;;;1.88;0.20;;;18.80;99.90;;;;;;5080531;28;20079;-62
2023/07/20 08:21:32;;;;;;;2.85;0.38;;;18.80;99.90;;;;;;5080846;28;20101;-61
2023/07/20 08:23:58;;;;;;;2.05;0.30;;;19.40;99.90;;;;;;5082788;28;20310;-62
2023/07/20 08:26:24;;;;;;;3.10;0.28;;;19.90;91.00;;;;;;5088251;28;20120;-62
2023/07/20 08:28:50;;;;;;;3.80;0.28;;;19.40;99.90;;;;;;5071212;28;20349;-61
2023/07/20 08:31:15;;;;;;;2.08;0.30;;;19.30;99.90;;;;;;5088560;28;20040;-62
2023/07/20 08:33:41;;;;;;;3.85;0.30;;;19.60;31.90;;;;;;5089921;28;20509;-62
2023/07/20 08:36:07;;;;;;;1.52;0.20;;;19.60;99.90;;;;;;5087626;28;20440;-62
2023/07/20 08:38:33;;;;;;;3.65;0.30;;;19.80;99.90;;;;;;5072134;28;20051;-61
2023/07/20 08:41:01;;;;;;;1.02;0.10;;;19.80;93.30;;;;;;5071771;28;20036;-62
2023/07/20 08:43:28;;;;;;;4.78;0.30;;;19.60;44.80;;;;;;5088329;28;20060;-62
2023/07/20 08:45:57;;;;;;;2.80;0.30;;;19.70;5.60;;;;;;5090307;28;20119;-62
2023/07/20 08:48:24;;;;;;;4.45;0.30;;;19.90;99.90;;;;;;5088006;28;20050;-62
2023/07/20 08:50:53;;;;;;;3.45;0.40;;;20.50;19.90;;;;;;5088886;28;20036;-62
2023/07/20 08:53:20;;;;;;;3.35;0.22;;;20.80;32.20;;;;;;5085733;28;20047;-62
2023/07/20 08:55:50;;;;;;;3.55;0.30;;;20.00;1.00;;;;;;5081140;28;20044;-63
2023/07/20 08:58:16;;;;;;;3.15;0.20;;;19.70;1.00;;;;;;5079553;28;20082;-63
2023/07/20 09:00:43;;;;;;;1.80;0.20;;;19.50;1.00;;;;;;5078642;28;20585;-63
2023/07/20 09:03:10;;;;;;;1.13;0.13;;;20.00;30.40;;;;;;5079068;28;20040;-62
2023/07/20 09:05:36;;;;;;;3.13;0.20;;;20.30;1.00;;;;;;5080626;28;20384;-60
2023/07/20 09:08:05;;;;;;;1.23;0.10;;;20.40;1.00;;;;;;5078727;28;20040;-62
2023/07/20 09:10:30;;;;;;;2.78;0.20;;;20.40;99.90;;;;;;5079352;28;20533;-61
2023/07/20 09:12:56;;;;;;;2.25;0.15;;;20.30;99.90;;;;;;5080210;28;20066;-61
2023/07/20 09:15:22;;;;;;;1.80;0.10;;;20.90;1.00;;;;;;5095605;28;20047;-61
2023/07/20 09:17:50;;;;;;;1.42;0.10;;;21.40;1.00;;;;;;5081032;28;20497;-61
2023/07/20 09:20:20;;;;;;;1.90;0.13;;;21.40;99.90;;;;;;5078894;28;20040;-61
2023/07/20 09:22:46;;;;;;;1.70;0.20;;;20.40;99.90;;;;;;5080503;28;20048;-61
2023/07/20 09:25:17;;;;;;;1.45;0.20;;;20.90;99.90;;;;;;5078598;28;20036;-61
2023/07/20 09:27:44;;;;;;;3.60;0.20;;;21.10;99.90;;;;;;5078282;28;20048;-62
2023/07/20 09:30:13;;;;;;;3.20;0.20;;;20.90;99.90;;;;;;5095810;28;20207;-61
2023/07/20 09:32:47;;;;;;;1.98;0.20;;;20.40;99.90;;;;;;5079122;28;20385;-62
2023/07/20 09:35:22;;;;;;;2.08;0.10;;;19.80;99.90;;;;;;5079530;28;20126;-62
2023/07/20 09:37:54;;;;;;;3.20;0.20;;;20.20;99.90;;;;;;5080169;28;20032;-61
2023/07/20 09:40:21;;;;;;;1.95;0.20;;;20.50;1.00;;;;;;5080500;28;20043;-60
2023/07/20 09:42:47;;;;;;;2.22;0.10;;;20.50;1.00;;;;;;5062257;28;20456;-62
2023/07/20 09:45:14;;;;;;;2.60;0.20;;;20.30;99.90;;;;;;5078101;28;20086;-62
2023/07/20 09:47:40;;;;;;;1.67;0.20;;;20.90;99.90;;;;;;5078059;28;20040;-61
2023/07/20 09:50:10;;;;;;;2.08;0.20;;;20.80;99.90;;;;;;5080017;28;20115;-61
2023/07/20 09:52:45;;;;;;;2.50;0.20;;;20.60;99.90;;;;;;5095515;28;20302;-62
2023/07/20 09:55:13;;;;;;;2.00;0.20;;;20.40;99.90;;;;;;5079706;28;20056;-62
2023/07/20 09:57:38;;;;;;;3.45;0.20;;;20.80;99.90;;;;;;5078523;28;20081;-62
2023/07/20 10:00:11;;;;;;;2.92;0.20;;;20.50;99.90;;;;;;5078124;28;20039;-61
2023/07/20 10:02:43;;;;;;;2.88;0.20;;;20.30;99.90;;;;;;5079877;28;20040;-62
2023/07/20 10:05:12;;;;;;;4.45;0.30;;;19.70;99.90;;;;;;5078373;28;20044;-62
2023/07/20 10:07:46;;;;;;;1.08;0.20;;;20.20;99.90;;;;;;5060991;28;20063;-62
2023/07/20 10:10:14;;;;;;;2.45;0.13;;;20.30;99.90;;;;;;5095605;28;20414;-63
2023/07/20 10:12:42;;;;;;;4.72;0.20;;;20.00;99.90;;;;;;5077439;28;20112;-62
2023/07/20 10:15:08;;;;;;;2.70;0.10;;;19.90;99.90;;;;;;5079640;28;20035;-61
2023/07/20 10:17:35;;;;;;;1.23;0.20;;;20.10;99.90;;;;;;5061791;28;20043;-61
2023/07/20 10:20:03;;;;;;;1.67;0.30;;;20.40;99.90;;;;;;5079386;28;20036;-62
2023/07/20 10:22:34;;;;;;;3.28;0.22;;;20.40;99.90;;;;;;5079457;28;20032;-61
2023/07/20 10:25:01;;;;;;;1.30;0.20;;;20.30;99.90;;;;;;5061563;28;20135;-62
2023/07/20 10:27:27;;;;;;;1.75;0.20;;;20.30;99.90;;;;;;5094829;28;20548;-61
2023/07/20 10:29:55;;;;;;;1.52;0.10;;;20.40;99.90;;;;;;5078812;28;20036;-63
2023/07/20 10:32:21;;;;;;;1.48;0.20;;;19.80;99.90;;;;;;5061071;28;20040;-61
2023/07/20 10:34:56;;;;;;;2.40;0.20;;;19.90;99.90;;;;;;5079323;28;20043;-62
2023/07/20 10:37:50;;;;;;;1.30;0.20;;;20.50;99.90;;;;;;5079112;28;20061;-61
2023/07/20 10:40:37;;;;;;;3.13;0.20;;;20.30;99.90;;;;;;5078096;28;20036;-61
2023/07/20 10:43:08;;;;;;;1.90;0.10;;;20.70;99.90;;;;;;5094628;28;20036;-62
2023/07/20 10:45:33;;;;;;;2.08;0.17;;;21.40;99.90;;;;;;5061471;28;20084;-62
2023/07/20 10:48:03;;;;;;;1.77;0.28;;;21.10;99.90;;;;;;5061205;28;20071;-62
2023/07/20 10:50:29;;;;;;;1.10;0.20;;;21.50;99.90;;;;;;5079235;28;20101;-62
2023/07/20 10:53:17;;;;;;;2.08;0.15;;;21.50;99.90;;;;;;5061262;28;20051;-62
2023/07/20 10:55:44;;;;;;;1.95;0.20;;;20.90;99.90;;;;;;5079846;28;20178;-62
2023/07/20 10:58:12;;;;;;;1.45;0.20;;;21.20;99.90;;;;;;5078278;28;20062;-62
2023/07/20 11:00:55;;;;;;;1.58;0.20;;;21.60;99.90;;;;;;5079236;28;20040;-62
2023/07/20 11:03:29;;;;;;;2.15;0.15;;;21.70;99.90;;;;;;5094510;28;20289;-62
2023/07/20 11:05:56;;;;;;;2.50;0.20;;;21.30;99.90;;;;;;5078790;28;20291;-61
2023/07/20 11:08:41;;;;;;;1.60;0.10;;;20.80;99.90;;;;;;5078406;28;20147;-62
2023/07/20 11:11:27;;;;;;;2.85;0.20;;;21.80;99.90;;;;;;5077932;28;20109;-61
2023/07/20 11:13:57;;;;;;;2.70;0.20;;;22.70;99.90;;;;;;5078107;28;20381;-61
2023/07/20 11:16:43;;;;;;;2.08;0.30;;;21.60;99.90;;;;;;5095252;28;20654;-61
2023/07/20 11:19:20;;;;;;;1.13;0.17;;;21.90;99.90;;;;;;5077685;28;20051;-61
2023/07/20 11:21:49;;;;;;;2.20;0.28;;;22.30;99.90;;;;;;5079708;28;20036;-61
2023/07/20 11:24:15;;;;;;;1.88;0.20;;;22.20;99.90;;;;;;5078668;28;20040;-61
2023/07/20 11:26:46;;;;;;;1.05;0.10;;;22.50;99.90;;;;;;5081684;28;20196;-61
2023/07/20 11:29:13;;;;;;;1.63;0.20;;;22.30;99.90;;;;;;5081379;28;20044;-61
2023/07/20 11:31:43;;;;;;;2.40;0.20;;;22.00;99.90;;;;;;5065167;28;20263;-62
2023/07/20 11:34:17;;;;;;;3.75;0.20;;;21.60;99.90;;;;;;5081592;28;20060;-61
2023/07/20 11:36:47;;;;;;;1.17;0.20;;;21.60;99.90;;;;;;5098404;28;20063;-61
2023/07/20 11:39:14;;;;;;;2.40;0.25;;;22.10;99.90;;;;;;5081138;28;20039;-62
2023/07/20 11:41:46;;;;;;;2.08;0.13;;;22.10;99.90;;;;;;5082998;28;20040;-62
2023/07/20 11:44:13;;;;;;;1.47;0.20;;;22.50;99.90;;;;;;5081424;28;20083;-62
2023/07/20 11:46:42;;;;;;;0.80;0.10;;;22.60;99.90;;;;;;5081700;28;20429;-62
2023/07/20 11:49:08;;;;;;;1.98;0.20;;;22.70;99.90;;;;;;5081071;28;20578;-61
2023/07/20 11:51:34;;;;;;;2.63;0.10;;;23.10;99.90;;;;;;5064886;28;20052;-61
2023/07/20 11:54:01;;;;;;;2.17;0.20;;;23.20;99.90;;;;;;5064356;28;20390;-61
2023/07/20 11:56:28;;;;;;;2.25;0.20;;;22.70;99.90;;;;;;5065032;28;20040;-62
2023/07/20 11:59:02;;;;;;;2.42;0.20;;;22.80;99.90;;;;;;5098460;28;20075;-62
2023/07/20 12:01:29;;;;;;;0.65;0.10;;;22.30;99.90;;;;;;5098205;28;20052;-62
2023/07/20 12:04:01;;;;;;;1.35;0.17;;;22.30;99.90;;;;;;5063993;28;20112;-62
2023/07/20 12:06:28;;;;;;;2.35;0.20;;;22.50;99.90;;;;;;5082574;28;20047;-62
2023/07/20 12:08:58;;;;;;;2.50;0.20;;;22.70;99.90;;;;;;5081470;28;20272;-62
2023/07/20 12:11:35;;;;;;;1.05;0.10;;;23.30;99.90;;;;;;5080754;28;20040;-62
2023/07/20 12:14:01;;;;;;;1.90;0.20;;;22.50;99.90;;;;;;5080535;28;20075;-62
2023/07/20 12:16:28;;;;;;;1.77;0.13;;;22.00;99.90;;;;;;5080685;28;20086;-62
2023/07/20 12:19:08;;;;;;;2.33;0.10;;;21.80;99.90;;;;;;5064388;28;20051;-62
2023/07/20 12:21:38;;;;;;;3.15;0.30;;;21.70;99.90;;;;;;5080374;28;20048;-62
2023/07/20 12:24:04;;;;;;;1.77;0.20;;;22.50;99.90;;;;;;5080141;28;20040;-62
2023/07/20 12:26:32;;;;;;;2.05;0.20;;;23.00;99.90;;;;;;5097510;28;20110;-62
2023/07/20 12:28:58;;;;;;;1.80;0.20;;;23.50;99.90;;;;;;5097094;28;20036;-62
2023/07/20 12:31:25;;;;;;;0.93;0.10;;;23.20;99.90;;;;;;5063688;28;20048;-62
2023/07/20 12:33:51;;;;;;;3.20;0.10;;;23.70;99.90;;;;;;5080034;28;20181;-62
2023/07/20 12:36:18;;;;;;;0.80;0.10;;;23.60;99.90;;;;;;5078913;28;20603;-62
2023/07/20 12:38:45;;;;;;;1.55;0.10;;;23.00;99.90;;;;;;5080092;28;20043;-61
2023/07/20 12:41:14;;;;;;;1.48;0.10;;;23.20;99.90;;;;;;5079659;28;20266;-62
2023/07/20 12:43:42;;;;;;;0.95;0.10;;;23.50;99.90;;;;;;5104324;28;20052;-62
2023/07/20 12:46:08;;;;;;;0.85;0.20;;;23.80;99.90;;;;;;5074529;28;20040;-62
2023/07/20 12:48:37;;;;;;;1.20;0.10;;;23.50;99.90;;;;;;5090468;28;20063;-61